sensor_id;sensor_type;location;lat;lon;timestamp;P1;durP1;ratioP1;P2;durP2;ratioP2
14939;SDS011;11825;51.898;8.202;2023-01-19T00:20:01;13.70;;;10.27;;
14939;SDS011;11825;51.898;8.202;2023-01-19T00:25:04;13.93;;;10.27;;
14939;SDS011;11825;51.898;8.202;2023-01-19T00:30:06;15.37;;;11.07;;
14939;SDS011;11825;51.898;8.202;2023-01-19T00:35:09;15.60;;;10.57;;
14939;SDS011;11825;51.898;8.202;2023-01-19T00:40:11;15.53;;;12.37;;
14939;SDS011;11825;51.898;8.202;2023-01-19T00:45:29;15.07;;;10.80;;
14939;SDS011;11825;51.898;8.202;2023-01-19T00:50:37;17.23;;;11.83;;
14939;SDS011;11825;51.898;8.202;2023-01-19T00:55:39;12.73;;;11.10;;
14939;SDS011;11825;51.898;8.202;2023-01-19T01:00:43;13.87;;;11.17;;
14939;SDS011;11825;51.898;8.202;2023-01-19T01:05:48;13.70;;;10.80;;
14939;SDS011;11825;51.898;8.202;2023-01-19T01:10:59;12.53;;;11.23;;
14939;SDS011;11825;51.898;8.202;2023-01-19T01:16:23;13.60;;;11.77;;
14939;SDS011;11825;51.898;8.202;2023-01-19T01:21:58;15.30;;;13.70;;
14939;SDS011;11825;51.898;8.202;2023-01-19T01:27:02;16.17;;;12.60;;
14939;SDS011;11825;51.898;8.202;2023-01-19T01:32:07;14.60;;;12.47;;
14939;SDS011;11825;51.898;8.202;2023-01-19T01:37:10;20.27;;;12.63;;
14939;SDS011;11825;51.898;8.202;2023-01-19T01:42:13;14.80;;;11.67;;
14939;SDS011;11825;51.898;8.202;2023-01-19T01:52:39;13.77;;;11.43;;
14939;SDS011;11825;51.898;8.202;2023-01-19T01:58:04;17.50;;;12.03;;
14939;SDS011;11825;51.898;8.202;2023-01-19T02:03:09;16.33;;;12.23;;
14939;SDS011;11825;51.898;8.202;2023-01-19T02:08:18;13.70;;;12.20;;
14939;SDS011;11825;51.898;8.202;2023-01-19T02:13:42;14.57;;;12.93;;
14939;SDS011;11825;51.898;8.202;2023-01-19T02:18:48;16.53;;;11.33;;
14939;SDS011;11825;51.898;8.202;2023-01-19T02:23:54;13.70;;;12.13;;
14939;SDS011;11825;51.898;8.202;2023-01-19T02:28:58;16.73;;;12.77;;
14939;SDS011;11825;51.898;8.202;2023-01-19T02:34:01;14.07;;;12.13;;
14939;SDS011;11825;51.898;8.202;2023-01-19T02:39:05;16.60;;;13.57;;
14939;SDS011;11825;51.898;8.202;2023-01-19T02:44:07;13.00;;;11.23;;
14939;SDS011;11825;51.898;8.202;2023-01-19T02:49:12;15.03;;;10.77;;
14939;SDS011;11825;51.898;8.202;2023-01-19T02:59:57;13.53;;;11.50;;
14939;SDS011;11825;51.898;8.202;2023-01-19T03:11:02;13.50;;;11.33;;
14939;SDS011;11825;51.898;8.202;2023-01-19T03:16:15;17.67;;;11.87;;
14939;SDS011;11825;51.898;8.202;2023-01-19T03:21:23;15.47;;;11.00;;
14939;SDS011;11825;51.898;8.202;2023-01-19T03:26:27;16.57;;;12.73;;
14939;SDS011;11825;51.898;8.202;2023-01-19T03:31:31;14.47;;;12.93;;
14939;SDS011;11825;51.898;8.202;2023-01-19T03:36:39;16.63;;;12.17;;
14939;SDS011;11825;51.898;8.202;2023-01-19T03:41:47;18.30;;;12.27;;
14939;SDS011;11825;51.898;8.202;2023-01-19T03:46:50;14.33;;;12.53;;
14939;SDS011;11825;51.898;8.202;2023-01-19T03:51:54;12.97;;;11.67;;
14939;SDS011;11825;51.898;8.202;2023-01-19T03:56:57;13.97;;;12.57;;
14939;SDS011;11825;51.898;8.202;2023-01-19T04:01:58;17.13;;;14.47;;
14939;SDS011;11825;51.898;8.202;2023-01-19T04:07:00;15.60;;;11.07;;
14939;SDS011;11825;51.898;8.202;2023-01-19T04:12:02;15.90;;;12.27;;
14939;SDS011;11825;51.898;8.202;2023-01-19T04:17:04;14.50;;;12.23;;
14939;SDS011;11825;51.898;8.202;2023-01-19T04:22:06;15.07;;;11.53;;
14939;SDS011;11825;51.898;8.202;2023-01-19T04:27:10;13.37;;;11.53;;
14939;SDS011;11825;51.898;8.202;2023-01-19T04:32:12;15.27;;;11.33;;
14939;SDS011;11825;51.898;8.202;2023-01-19T04:37:19;14.07;;;10.90;;
14939;SDS011;11825;51.898;8.202;2023-01-19T04:42:21;14.43;;;9.13;;
14939;SDS011;11825;51.898;8.202;2023-01-19T04:47:25;10.50;;;9.47;;
14939;SDS011;11825;51.898;8.202;2023-01-19T04:52:32;14.70;;;9.83;;
14939;SDS011;11825;51.898;8.202;2023-01-19T04:57:35;12.00;;;10.27;;
14939;SDS011;11825;51.898;8.202;2023-01-19T05:02:39;12.40;;;9.97;;
14939;SDS011;11825;51.898;8.202;2023-01-19T05:07:44;12.77;;;9.23;;
14939;SDS011;11825;51.898;8.202;2023-01-19T05:12:48;13.10;;;9.90;;
14939;SDS011;11825;51.898;8.202;2023-01-19T05:17:51;14.40;;;9.80;;
14939;SDS011;11825;51.898;8.202;2023-01-19T05:22:53;12.70;;;8.93;;
14939;SDS011;11825;51.898;8.202;2023-01-19T05:27:55;11.13;;;8.80;;
14939;SDS011;11825;51.898;8.202;2023-01-19T05:32:59;12.03;;;9.10;;
14939;SDS011;11825;51.898;8.202;2023-01-19T05:38:04;10.80;;;9.67;;
14939;SDS011;11825;51.898;8.202;2023-01-19T05:43:10;11.63;;;8.43;;
14939;SDS011;11825;51.898;8.202;2023-01-19T05:48:19;12.70;;;9.93;;
14939;SDS011;11825;51.898;8.202;2023-01-19T05:53:21;9.70;;;8.37;;
14939;SDS011;11825;51.898;8.202;2023-01-19T05:58:25;12.60;;;10.87;;
14939;SDS011;11825;51.898;8.202;2023-01-19T06:03:30;12.20;;;10.73;;
14939;SDS011;11825;51.898;8.202;2023-01-19T06:08:33;12.33;;;9.53;;
14939;SDS011;11825;51.898;8.202;2023-01-19T06:13:49;13.33;;;9.03;;
14939;SDS011;11825;51.898;8.202;2023-01-19T06:18:54;9.87;;;8.80;;
14939;SDS011;11825;51.898;8.202;2023-01-19T06:23:58;11.50;;;9.20;;
14939;SDS011;11825;51.898;8.202;2023-01-19T06:29:00;9.27;;;7.17;;
14939;SDS011;11825;51.898;8.202;2023-01-19T06:34:02;11.17;;;9.20;;
14939;SDS011;11825;51.898;8.202;2023-01-19T06:45:07;8.27;;;7.23;;
14939;SDS011;11825;51.898;8.202;2023-01-19T06:50:13;9.40;;;8.20;;
14939;SDS011;11825;51.898;8.202;2023-01-19T06:55:21;11.03;;;9.83;;
14939;SDS011;11825;51.898;8.202;2023-01-19T07:00:25;9.73;;;8.13;;
14939;SDS011;11825;51.898;8.202;2023-01-19T07:05:29;10.67;;;9.47;;
14939;SDS011;11825;51.898;8.202;2023-01-19T07:10:32;13.00;;;10.23;;
14939;SDS011;11825;51.898;8.202;2023-01-19T07:15:54;10.63;;;9.13;;
14939;SDS011;11825;51.898;8.202;2023-01-19T07:20:56;9.50;;;8.37;;
14939;SDS011;11825;51.898;8.202;2023-01-19T07:26:01;10.57;;;8.80;;
14939;SDS011;11825;51.898;8.202;2023-01-19T07:31:05;10.97;;;9.07;;
14939;SDS011;11825;51.898;8.202;2023-01-19T07:36:09;10.53;;;9.43;;
14939;SDS011;11825;51.898;8.202;2023-01-19T07:41:13;10.73;;;8.40;;
14939;SDS011;11825;51.898;8.202;2023-01-19T07:46:19;8.73;;;7.93;;
14939;SDS011;11825;51.898;8.202;2023-01-19T07:51:26;10.67;;;8.03;;
14939;SDS011;11825;51.898;8.202;2023-01-19T07:56:30;10.13;;;8.97;;
14939;SDS011;11825;51.898;8.202;2023-01-19T08:01:34;10.50;;;9.40;;
14939;SDS011;11825;51.898;8.202;2023-01-19T08:06:39;10.63;;;8.67;;
14939;SDS011;11825;51.898;8.202;2023-01-19T08:11:45;11.20;;;8.80;;
14939;SDS011;11825;51.898;8.202;2023-01-19T08:16:47;12.03;;;10.37;;
14939;SDS011;11825;51.898;8.202;2023-01-19T08:21:49;11.00;;;9.37;;
14939;SDS011;11825;51.898;8.202;2023-01-19T08:27:03;11.80;;;9.60;;
14939;SDS011;11825;51.898;8.202;2023-01-19T08:32:06;12.10;;;10.80;;
14939;SDS011;11825;51.898;8.202;2023-01-19T08:37:08;12.57;;;10.40;;
14939;SDS011;11825;51.898;8.202;2023-01-19T08:42:13;13.97;;;11.37;;
14939;SDS011;11825;51.898;8.202;2023-01-19T08:47:15;13.37;;;11.50;;
14939;SDS011;11825;51.898;8.202;2023-01-19T08:52:17;15.10;;;12.40;;
14939;SDS011;11825;51.898;8.202;2023-01-19T08:57:19;12.43;;;11.13;;
14939;SDS011;11825;51.898;8.202;2023-01-19T09:02:21;12.23;;;10.90;;
14939;SDS011;11825;51.898;8.202;2023-01-19T09:07:25;12.33;;;11.03;;
14939;SDS011;11825;51.898;8.202;2023-01-19T09:12:30;13.03;;;10.97;;
14939;SDS011;11825;51.898;8.202;2023-01-19T09:17:34;12.93;;;9.87;;
14939;SDS011;11825;51.898;8.202;2023-01-19T09:22:39;16.07;;;11.53;;
14939;SDS011;11825;51.898;8.202;2023-01-19T09:27:42;12.77;;;11.43;;
14939;SDS011;11825;51.898;8.202;2023-01-19T09:32:48;16.47;;;11.37;;
14939;SDS011;11825;51.898;8.202;2023-01-19T09:37:53;21.80;;;12.53;;
14939;SDS011;11825;51.898;8.202;2023-01-19T09:58:33;20.57;;;12.43;;
14939;SDS011;11825;51.898;8.202;2023-01-19T10:03:41;19.73;;;11.47;;
14939;SDS011;11825;51.898;8.202;2023-01-19T10:08:48;16.63;;;11.30;;
14939;SDS011;11825;51.898;8.202;2023-01-19T10:14:08;16.07;;;10.70;;
14939;SDS011;11825;51.898;8.202;2023-01-19T10:24:37;12.37;;;8.83;;
14939;SDS011;11825;51.898;8.202;2023-01-19T10:29:40;10.63;;;9.13;;
14939;SDS011;11825;51.898;8.202;2023-01-19T10:34:46;14.30;;;9.33;;
14939;SDS011;11825;51.898;8.202;2023-01-19T10:39:55;16.17;;;11.03;;
14939;SDS011;11825;51.898;8.202;2023-01-19T10:45:03;11.83;;;9.77;;
14939;SDS011;11825;51.898;8.202;2023-01-19T10:55:25;16.80;;;11.03;;
14939;SDS011;11825;51.898;8.202;2023-01-19T11:00:36;14.80;;;10.83;;
14939;SDS011;11825;51.898;8.202;2023-01-19T11:05:42;19.73;;;11.53;;
14939;SDS011;11825;51.898;8.202;2023-01-19T11:10:50;18.23;;;12.07;;
14939;SDS011;11825;51.898;8.202;2023-01-19T11:15:57;16.80;;;11.70;;
14939;SDS011;11825;51.898;8.202;2023-01-19T11:21:14;13.90;;;11.63;;
14939;SDS011;11825;51.898;8.202;2023-01-19T11:26:26;14.43;;;11.30;;
14939;SDS011;11825;51.898;8.202;2023-01-19T11:31:49;17.43;;;12.10;;
14939;SDS011;11825;51.898;8.202;2023-01-19T11:36:58;15.17;;;12.00;;
14939;SDS011;11825;51.898;8.202;2023-01-19T11:42:04;19.33;;;13.20;;
14939;SDS011;11825;51.898;8.202;2023-01-19T11:47:16;21.47;;;13.53;;
14939;SDS011;11825;51.898;8.202;2023-01-19T11:52:33;24.47;;;15.47;;
14939;SDS011;11825;51.898;8.202;2023-01-19T11:57:58;25.07;;;17.00;;
14939;SDS011;11825;51.898;8.202;2023-01-19T12:08:32;24.43;;;16.80;;
14939;SDS011;11825;51.898;8.202;2023-01-19T12:13:40;25.87;;;17.80;;
14939;SDS011;11825;51.898;8.202;2023-01-19T12:18:46;22.73;;;16.20;;
14939;SDS011;11825;51.898;8.202;2023-01-19T12:24:13;21.43;;;17.60;;
14939;SDS011;11825;51.898;8.202;2023-01-19T12:29:22;24.93;;;16.07;;
14939;SDS011;11825;51.898;8.202;2023-01-19T12:34:35;26.13;;;15.77;;
14939;SDS011;11825;51.898;8.202;2023-01-19T12:39:49;17.50;;;15.07;;
14939;SDS011;11825;51.898;8.202;2023-01-19T12:45:06;19.70;;;14.47;;
14939;SDS011;11825;51.898;8.202;2023-01-19T12:50:22;18.63;;;14.87;;
14939;SDS011;11825;51.898;8.202;2023-01-19T12:55:27;23.37;;;14.70;;
14939;SDS011;11825;51.898;8.202;2023-01-19T13:05:48;26.50;;;19.47;;
14939;SDS011;11825;51.898;8.202;2023-01-19T13:21:30;21.97;;;17.13;;
14939;SDS011;11825;51.898;8.202;2023-01-19T13:31:51;16.27;;;14.57;;
14939;SDS011;11825;51.898;8.202;2023-01-19T13:37:06;23.80;;;15.97;;
14939;SDS011;11825;51.898;8.202;2023-01-19T13:47:38;27.77;;;15.37;;
14939;SDS011;11825;51.898;8.202;2023-01-19T13:52:45;21.93;;;15.23;;
14939;SDS011;11825;51.898;8.202;2023-01-19T13:57:50;20.83;;;15.33;;
14939;SDS011;11825;51.898;8.202;2023-01-19T14:13:16;24.40;;;15.00;;
14939;SDS011;11825;51.898;8.202;2023-01-19T14:23:37;22.73;;;15.93;;
14939;SDS011;11825;51.898;8.202;2023-01-19T14:28:46;17.73;;;15.30;;
14939;SDS011;11825;51.898;8.202;2023-01-19T14:33:51;22.93;;;14.83;;
14939;SDS011;11825;51.898;8.202;2023-01-19T14:38:57;24.30;;;15.50;;
14939;SDS011;11825;51.898;8.202;2023-01-19T14:44:14;21.47;;;14.03;;
14939;SDS011;11825;51.898;8.202;2023-01-19T14:49:19;18.67;;;13.03;;
14939;SDS011;11825;51.898;8.202;2023-01-19T14:54:42;22.50;;;12.97;;
14939;SDS011;11825;51.898;8.202;2023-01-19T14:59:45;21.37;;;14.23;;
14939;SDS011;11825;51.898;8.202;2023-01-19T15:04:55;23.27;;;14.40;;
14939;SDS011;11825;51.898;8.202;2023-01-19T15:10:02;24.20;;;15.23;;
14939;SDS011;11825;51.898;8.202;2023-01-19T15:15:04;20.93;;;16.20;;
14939;SDS011;11825;51.898;8.202;2023-01-19T15:20:15;26.37;;;18.33;;
14939;SDS011;11825;51.898;8.202;2023-01-19T15:25:20;29.07;;;20.03;;
14939;SDS011;11825;51.898;8.202;2023-01-19T15:30:28;30.30;;;21.50;;
14939;SDS011;11825;51.898;8.202;2023-01-19T15:35:36;30.30;;;21.90;;
14939;SDS011;11825;51.898;8.202;2023-01-19T15:40:44;29.47;;;21.97;;
14939;SDS011;11825;51.898;8.202;2023-01-19T15:46:00;33.77;;;25.50;;
14939;SDS011;11825;51.898;8.202;2023-01-19T15:51:03;38.57;;;26.50;;
14939;SDS011;11825;51.898;8.202;2023-01-19T15:56:17;41.37;;;25.57;;
14939;SDS011;11825;51.898;8.202;2023-01-19T16:01:22;37.90;;;24.03;;
14939;SDS011;11825;51.898;8.202;2023-01-19T16:06:34;33.17;;;24.07;;
14939;SDS011;11825;51.898;8.202;2023-01-19T16:11:38;34.73;;;23.20;;
14939;SDS011;11825;51.898;8.202;2023-01-19T16:22:10;38.77;;;26.87;;
14939;SDS011;11825;51.898;8.202;2023-01-19T16:39:13;75.00;;;50.30;;
14939;SDS011;11825;51.898;8.202;2023-01-19T16:44:22;57.83;;;37.30;;
14939;SDS011;11825;51.898;8.202;2023-01-19T16:49:33;48.30;;;32.17;;
14939;SDS011;11825;51.898;8.202;2023-01-19T16:54:35;41.67;;;29.80;;
14939;SDS011;11825;51.898;8.202;2023-01-19T16:59:39;45.80;;;30.53;;
14939;SDS011;11825;51.898;8.202;2023-01-19T17:04:41;44.23;;;30.17;;
14939;SDS011;11825;51.898;8.202;2023-01-19T17:09:46;50.43;;;27.43;;
14939;SDS011;11825;51.898;8.202;2023-01-19T17:14:50;44.00;;;28.17;;
14939;SDS011;11825;51.898;8.202;2023-01-19T17:19:52;40.87;;;26.40;;
14939;SDS011;11825;51.898;8.202;2023-01-19T17:24:53;42.30;;;28.07;;
14939;SDS011;11825;51.898;8.202;2023-01-19T17:35:55;50.47;;;35.30;;
14939;SDS011;11825;51.898;8.202;2023-01-19T17:41:18;37.57;;;26.53;;
14939;SDS011;11825;51.898;8.202;2023-01-19T17:46:27;37.50;;;27.23;;
14939;SDS011;11825;51.898;8.202;2023-01-19T17:51:36;43.33;;;27.57;;
14939;SDS011;11825;51.898;8.202;2023-01-19T17:56:42;42.43;;;27.93;;
14939;SDS011;11825;51.898;8.202;2023-01-19T18:01:53;40.53;;;26.20;;
14939;SDS011;11825;51.898;8.202;2023-01-19T18:06:55;38.47;;;28.30;;
14939;SDS011;11825;51.898;8.202;2023-01-19T18:12:03;42.00;;;28.60;;
14939;SDS011;11825;51.898;8.202;2023-01-19T18:17:17;33.30;;;24.57;;
14939;SDS011;11825;51.898;8.202;2023-01-19T18:22:38;35.60;;;25.70;;
14939;SDS011;11825;51.898;8.202;2023-01-19T18:27:56;37.97;;;25.17;;
14939;SDS011;11825;51.898;8.202;2023-01-19T18:33:19;32.00;;;23.40;;
14939;SDS011;11825;51.898;8.202;2023-01-19T18:50:33;37.20;;;25.70;;
14939;SDS011;11825;51.898;8.202;2023-01-19T19:14:26;38.80;;;24.47;;
14939;SDS011;11825;51.898;8.202;2023-01-19T19:26:00;37.93;;;25.07;;
14939;SDS011;11825;51.898;8.202;2023-01-19T19:31:14;38.70;;;26.93;;
14939;SDS011;11825;51.898;8.202;2023-01-19T19:36:25;40.77;;;27.63;;
14939;SDS011;11825;51.898;8.202;2023-01-19T19:41:40;46.33;;;30.13;;
14939;SDS011;11825;51.898;8.202;2023-01-19T19:52:11;42.50;;;28.40;;
14939;SDS011;11825;51.898;8.202;2023-01-19T19:57:15;40.33;;;29.17;;
14939;SDS011;11825;51.898;8.202;2023-01-19T20:02:33;34.60;;;24.03;;
14939;SDS011;11825;51.898;8.202;2023-01-19T20:07:42;32.80;;;23.93;;
14939;SDS011;11825;51.898;8.202;2023-01-19T20:12:54;60.40;;;41.97;;
14939;SDS011;11825;51.898;8.202;2023-01-19T20:18:10;45.43;;;28.07;;
14939;SDS011;11825;51.898;8.202;2023-01-19T20:23:18;39.37;;;27.93;;
14939;SDS011;11825;51.898;8.202;2023-01-19T20:39:51;34.73;;;25.03;;
14939;SDS011;11825;51.898;8.202;2023-01-19T20:45:00;36.70;;;25.57;;
14939;SDS011;11825;51.898;8.202;2023-01-19T20:50:03;38.00;;;27.53;;
14939;SDS011;11825;51.898;8.202;2023-01-19T20:55:06;42.07;;;27.03;;
14939;SDS011;11825;51.898;8.202;2023-01-19T21:00:15;69.83;;;47.60;;
14939;SDS011;11825;51.898;8.202;2023-01-19T21:05:21;49.70;;;33.10;;
14939;SDS011;11825;51.898;8.202;2023-01-19T21:10:37;42.07;;;28.47;;
14939;SDS011;11825;51.898;8.202;2023-01-19T21:15:50;43.73;;;28.20;;
14939;SDS011;11825;51.898;8.202;2023-01-19T21:20:53;36.23;;;24.97;;
14939;SDS011;11825;51.898;8.202;2023-01-19T21:25:58;57.50;;;35.13;;
14939;SDS011;11825;51.898;8.202;2023-01-19T21:31:11;42.97;;;28.80;;
14939;SDS011;11825;51.898;8.202;2023-01-19T21:36:35;43.70;;;26.27;;
14939;SDS011;11825;51.898;8.202;2023-01-19T21:41:54;37.80;;;24.63;;
14939;SDS011;11825;51.898;8.202;2023-01-19T21:47:22;37.17;;;25.37;;
14939;SDS011;11825;51.898;8.202;2023-01-19T21:52:35;35.67;;;24.37;;
14939;SDS011;11825;51.898;8.202;2023-01-19T21:57:45;39.50;;;25.53;;
14939;SDS011;11825;51.898;8.202;2023-01-19T22:02:54;37.80;;;25.17;;
14939;SDS011;11825;51.898;8.202;2023-01-19T22:08:24;35.63;;;24.43;;
14939;SDS011;11825;51.898;8.202;2023-01-19T22:13:33;40.47;;;25.17;;
14939;SDS011;11825;51.898;8.202;2023-01-19T22:18:43;35.57;;;24.03;;
14939;SDS011;11825;51.898;8.202;2023-01-19T22:24:10;34.40;;;23.20;;
14939;SDS011;11825;51.898;8.202;2023-01-19T22:29:31;37.97;;;24.37;;
14939;SDS011;11825;51.898;8.202;2023-01-19T22:34:35;38.63;;;23.57;;
14939;SDS011;11825;51.898;8.202;2023-01-19T22:39:55;34.90;;;22.07;;
14939;SDS011;11825;51.898;8.202;2023-01-19T22:45:23;40.03;;;25.60;;
14939;SDS011;11825;51.898;8.202;2023-01-19T22:50:31;37.43;;;27.77;;
14939;SDS011;11825;51.898;8.202;2023-01-19T23:01:33;40.63;;;26.30;;
14939;SDS011;11825;51.898;8.202;2023-01-19T23:06:50;36.73;;;25.33;;
14939;SDS011;11825;51.898;8.202;2023-01-19T23:11:54;38.87;;;26.77;;
14939;SDS011;11825;51.898;8.202;2023-01-19T23:17:13;41.77;;;29.43;;
14939;SDS011;11825;51.898;8.202;2023-01-19T23:22:27;41.93;;;27.67;;
14939;SDS011;11825;51.898;8.202;2023-01-19T23:27:44;45.03;;;30.50;;
14939;SDS011;11825;51.898;8.202;2023-01-19T23:32:52;43.87;;;29.47;;
14939;SDS011;11825;51.898;8.202;2023-01-19T23:38:13;44.47;;;29.23;;
14939;SDS011;11825;51.898;8.202;2023-01-19T23:43:31;37.53;;;27.20;;
14939;SDS011;11825;51.898;8.202;2023-01-19T23:48:46;37.33;;;27.50;;
14939;SDS011;11825;51.898;8.202;2023-01-19T23:53:53;35.73;;;25.20;;
14939;SDS011;11825;51.898;8.202;2023-01-19T23:59:19;46.00;;;28.30;;
